createdAt,value
2018-05-31T00:00:10.779Z,6.63
2018-05-31T00:00:23.348Z,6.63
2018-05-31T00:00:35.877Z,6.63
2018-05-31T00:00:48.480Z,6.63
2018-05-31T00:01:02.158Z,6.63
2018-05-31T00:01:15.679Z,6.63
2018-05-31T00:01:28.204Z,6.63
2018-05-31T00:01:40.724Z,6.63
2018-05-31T00:01:53.250Z,6.63
2018-05-31T00:02:05.805Z,6.63
2018-05-31T00:02:20.340Z,6.63
2018-05-31T00:02:33.147Z,6.63
2018-05-31T00:02:45.706Z,6.63
2018-05-31T00:02:58.266Z,6.63
2018-05-31T00:03:10.831Z,6.63
2018-05-31T00:03:25.251Z,6.63
2018-05-31T00:03:37.788Z,6.63
2018-05-31T00:03:50.310Z,6.63
2018-05-31T00:04:02.837Z,6.63
2018-05-31T00:04:15.390Z,6.63
2018-05-31T00:04:29.884Z,6.63
2018-05-31T00:04:42.413Z,6.63
2018-05-31T00:04:54.958Z,6.63
2018-05-31T00:05:07.506Z,6.63
2018-05-31T00:05:20.062Z,6.63
2018-05-31T00:05:34.121Z,6.63
2018-05-31T00:05:46.965Z,6.63
2018-05-31T00:05:59.462Z,6.63
2018-05-31T00:06:12.038Z,6.63
2018-05-31T00:06:24.530Z,6.63
2018-05-31T00:06:37.559Z,6.63
2018-05-31T00:06:51.530Z,6.63
2018-05-31T00:07:04.058Z,6.63
2018-05-31T00:07:16.589Z,6.63
2018-05-31T00:07:29.120Z,6.63
2018-05-31T00:07:41.863Z,6.63
2018-05-31T00:07:56.481Z,6.63
2018-05-31T00:08:09.102Z,6.63
2018-05-31T00:08:21.664Z,6.1
2018-05-31T00:08:34.193Z,6.1
2018-05-31T00:08:46.759Z,6.1
2018-05-31T00:09:01.157Z,6.1
2018-05-31T00:09:13.722Z,6.1
2018-05-31T00:09:26.244Z,6.1
2018-05-31T00:09:38.788Z,6.1
2018-05-31T00:09:51.369Z,6.1
2018-05-31T00:10:06.012Z,6.1
2018-05-31T00:10:18.582Z,6.1
2018-05-31T00:10:31.164Z,6.1
2018-05-31T00:10:43.699Z,6.1
2018-05-31T00:10:56.242Z,6.1
2018-05-31T00:11:10.226Z,6.1
2018-05-31T00:11:23.146Z,6.1
2018-05-31T00:11:35.683Z,6.1
2018-05-31T00:11:48.274Z,6.1
2018-05-31T00:12:00.852Z,6.1
2018-05-31T00:12:13.401Z,6.1
2018-05-31T00:12:27.502Z,6.1
2018-05-31T00:12:40.064Z,6.1
2018-05-31T00:12:52.662Z,6.1
2018-05-31T00:13:05.196Z,6.1
2018-05-31T00:13:17.759Z,6.1
2018-05-31T00:13:31.802Z,6.1
2018-05-31T00:13:44.350Z,6.1
2018-05-31T00:13:56.883Z,6.1
2018-05-31T00:14:09.513Z,6.1
2018-05-31T00:14:22.154Z,6.1
2018-05-31T00:14:36.660Z,6.1
2018-05-31T00:14:49.220Z,6.1
2018-05-31T00:15:01.744Z,6.1
2018-05-31T00:15:14.295Z,6.1
2018-05-31T00:15:26.852Z,6.1
2018-05-31T00:15:41.267Z,6.1
2018-05-31T00:15:53.993Z,6.1
2018-05-31T00:16:06.538Z,6.1
2018-05-31T00:16:19.080Z,6.1
2018-05-31T00:16:31.624Z,6.1
2018-05-31T00:16:44.668Z,6.1
2018-05-31T00:16:58.583Z,6.1
2018-05-31T00:17:11.149Z,6.1
2018-05-31T00:17:23.696Z,6.1
2018-05-31T00:17:36.224Z,6.1
2018-05-31T00:17:48.803Z,6.1
2018-05-31T00:18:03.233Z,6.1
2018-05-31T00:18:15.943Z,5.88
2018-05-31T00:18:28.479Z,5.88
2018-05-31T00:18:41.035Z,5.88
2018-05-31T00:18:53.606Z,5.88
2018-05-31T00:19:07.989Z,5.88
2018-05-31T00:19:20.559Z,5.88
2018-05-31T00:19:33.119Z,5.88
2018-05-31T00:19:45.664Z,5.88
2018-05-31T00:19:58.178Z,5.88
2018-05-31T00:20:12.834Z,5.88
2018-05-31T00:20:25.349Z,5.88
2018-05-31T00:20:37.874Z,5.88
2018-05-31T00:20:50.451Z,5.88
2018-05-31T00:21:03.020Z,5.88
2018-05-31T00:21:17.006Z,5.88
2018-05-31T00:21:29.919Z,5.88
2018-05-31T00:21:42.494Z,5.88
2018-05-31T00:21:55.070Z,5.88
2018-05-31T00:22:07.650Z,5.88
2018-05-31T00:22:20.623Z,5.88
2018-05-31T00:22:34.700Z,5.88
2018-05-31T00:22:47.240Z,5.88
2018-05-31T00:22:59.784Z,5.88
2018-05-31T00:23:12.305Z,5.88
2018-05-31T00:23:24.833Z,5.88
2018-05-31T00:23:39.376Z,5.88
2018-05-31T00:23:51.881Z,5.88
2018-05-31T00:24:04.460Z,5.88
2018-05-31T00:24:17.043Z,5.88
2018-05-31T00:24:29.544Z,5.88
2018-05-31T00:24:44.103Z,5.88
2018-05-31T00:24:56.642Z,5.88
2018-05-31T00:25:09.678Z,5.88
2018-05-31T00:25:22.818Z,5.88
2018-05-31T00:25:35.417Z,5.88
2018-05-31T00:25:49.717Z,5.88
2018-05-31T00:26:02.267Z,5.88
2018-05-31T00:26:14.880Z,5.88
2018-05-31T00:26:27.416Z,5.88
2018-05-31T00:26:39.945Z,5.88
2018-05-31T00:26:53.962Z,5.88
2018-05-31T00:27:07.005Z,5.88
2018-05-31T00:27:19.541Z,5.88
2018-05-31T00:27:32.050Z,5.88
2018-05-31T00:27:44.634Z,5.88
2018-05-31T00:27:57.206Z,5.88
2018-05-31T00:28:11.595Z,5.88
2018-05-31T00:28:24.141Z,5.65
2018-05-31T00:28:36.657Z,5.65
2018-05-31T00:28:49.200Z,5.65
2018-05-31T00:29:01.729Z,5.65
2018-05-31T00:29:16.261Z,5.65
2018-05-31T00:29:28.755Z,5.65
2018-05-31T00:29:41.321Z,5.65
2018-05-31T00:29:53.848Z,5.65
2018-05-31T00:30:06.397Z,5.65
2018-05-31T00:30:21.006Z,5.65
2018-05-31T00:30:33.564Z,5.65
2018-05-31T00:30:46.069Z,5.65
2018-05-31T00:30:58.578Z,5.65
2018-05-31T00:31:11.151Z,5.65
2018-05-31T00:31:25.498Z,5.65
2018-05-31T00:31:38.033Z,5.65
2018-05-31T00:31:50.568Z,5.65
2018-05-31T00:32:03.112Z,5.65
2018-05-31T00:32:15.667Z,5.65
2018-05-31T00:32:29.242Z,5.65
2018-05-31T00:32:42.557Z,5.65
2018-05-31T00:32:55.129Z,5.65
2018-05-31T00:33:07.684Z,5.65
2018-05-31T00:33:20.292Z,5.65
2018-05-31T00:33:32.851Z,5.65
2018-05-31T00:33:46.966Z,5.65
2018-05-31T00:33:59.500Z,5.65
2018-05-31T00:34:12.088Z,5.65
2018-05-31T00:34:24.654Z,5.65
2018-05-31T00:34:37.210Z,5.65
2018-05-31T00:34:51.837Z,5.65
2018-05-31T00:35:04.589Z,5.65
2018-05-31T00:35:17.134Z,5.65
2018-05-31T00:35:29.667Z,5.65
2018-05-31T00:35:42.200Z,5.65
2018-05-31T00:35:56.633Z,5.65
2018-05-31T00:36:09.158Z,5.65
2018-05-31T00:36:21.687Z,5.65
2018-05-31T00:36:34.212Z,5.65
2018-05-31T00:36:46.793Z,5.65
2018-05-31T00:37:00.953Z,5.65
2018-05-31T00:37:13.769Z,5.65
2018-05-31T00:37:26.304Z,5.65
2018-05-31T00:37:38.836Z,5.65
2018-05-31T00:37:51.369Z,5.65
2018-05-31T00:38:04.490Z,5.65
2018-05-31T00:38:18.394Z,5.82
2018-05-31T00:38:30.932Z,5.82
2018-05-31T00:38:43.434Z,5.82
2018-05-31T00:38:55.975Z,5.82
2018-05-31T00:39:08.483Z,5.82
2018-05-31T00:39:23.097Z,5.82
2018-05-31T00:39:35.656Z,5.82
2018-05-31T00:39:48.205Z,5.82
2018-05-31T00:40:00.736Z,5.82
2018-05-31T00:40:13.323Z,5.82
2018-05-31T00:40:27.519Z,5.82
2018-05-31T00:40:40.053Z,5.82
2018-05-31T00:40:52.604Z,5.82
2018-05-31T00:41:05.272Z,5.82
2018-05-31T00:41:17.827Z,5.82
2018-05-31T00:41:32.210Z,5.82
2018-05-31T00:41:44.783Z,5.82
2018-05-31T00:41:57.516Z,5.82
2018-05-31T00:42:10.070Z,5.82
2018-05-31T00:42:22.617Z,5.82
2018-05-31T00:42:36.593Z,5.82
2018-05-31T00:42:49.380Z,5.82
2018-05-31T00:43:01.864Z,5.82
2018-05-31T00:43:14.476Z,5.82
2018-05-31T00:43:27.024Z,5.82
2018-05-31T00:43:39.578Z,5.82
2018-05-31T00:43:53.767Z,5.82
2018-05-31T00:44:06.300Z,5.82
2018-05-31T00:44:18.796Z,5.82
2018-05-31T00:44:31.316Z,5.82
2018-05-31T00:44:43.945Z,5.82
2018-05-31T00:44:58.480Z,5.82
2018-05-31T00:45:11.057Z,5.82
2018-05-31T00:45:23.574Z,5.82
2018-05-31T00:45:36.145Z,5.82
2018-05-31T00:45:48.687Z,5.82
2018-05-31T00:46:02.963Z,5.82
2018-05-31T00:46:15.479Z,5.82
2018-05-31T00:46:27.994Z,5.82
2018-05-31T00:46:40.501Z,5.82
2018-05-31T00:46:53.091Z,5.82
2018-05-31T00:47:07.855Z,5.82
2018-05-31T00:47:20.431Z,5.82
2018-05-31T00:47:32.948Z,5.82
2018-05-31T00:47:45.456Z,5.82
2018-05-31T00:47:57.979Z,5.82
2018-05-31T00:48:11.642Z,5.82
2018-05-31T00:48:24.959Z,5.65
2018-05-31T00:48:37.505Z,5.65
2018-05-31T00:48:50.098Z,5.65
2018-05-31T00:49:02.614Z,5.65
2018-05-31T00:49:15.156Z,5.65
2018-05-31T00:49:31.337Z,5.65
2018-05-31T00:49:43.846Z,5.65
2018-05-31T00:49:56.357Z,5.65
2018-05-31T00:50:08.921Z,5.65
2018-05-31T00:50:21.452Z,5.65
2018-05-31T00:50:35.936Z,5.65
2018-05-31T00:50:48.434Z,5.65
2018-05-31T00:51:00.957Z,5.65
2018-05-31T00:51:13.468Z,5.65
2018-05-31T00:51:26.355Z,5.65
2018-05-31T00:51:40.583Z,5.65
2018-05-31T00:51:53.135Z,5.65
2018-05-31T00:52:05.690Z,5.65
2018-05-31T00:52:18.190Z,5.65
2018-05-31T00:52:30.888Z,5.65
2018-05-31T00:52:45.061Z,5.65
2018-05-31T00:52:57.610Z,5.65
2018-05-31T00:53:10.160Z,5.65
2018-05-31T00:53:22.687Z,5.65
2018-05-31T00:53:35.209Z,5.65
2018-05-31T00:53:48.889Z,5.65
2018-05-31T00:54:02.092Z,5.65
2018-05-31T00:54:14.618Z,5.65
2018-05-31T00:54:27.167Z,5.65
2018-05-31T00:54:39.669Z,5.65
2018-05-31T00:54:52.229Z,5.65
2018-05-31T00:55:06.507Z,5.65
2018-05-31T00:55:19.050Z,5.65
2018-05-31T00:55:31.569Z,5.65
2018-05-31T00:55:44.085Z,5.65
2018-05-31T00:55:56.601Z,5.65
2018-05-31T00:56:11.155Z,5.65
2018-05-31T00:56:23.710Z,5.65
2018-05-31T00:56:36.240Z,5.65
2018-05-31T00:56:48.772Z,5.65
2018-05-31T00:57:01.309Z,5.65
2018-05-31T00:57:15.756Z,5.65
2018-05-31T00:57:28.288Z,5.65
2018-05-31T00:57:40.815Z,5.65
2018-05-31T00:57:53.357Z,5.65
2018-05-31T00:58:05.841Z,5.65
2018-05-31T00:58:20.537Z,6.69
2018-05-31T00:58:33.084Z,6.69
2018-05-31T00:58:45.633Z,6.69
2018-05-31T00:58:58.237Z,6.69
2018-05-31T00:59:10.782Z,6.69
2018-05-31T00:59:23.834Z,6.69
2018-05-31T00:59:37.373Z,6.69
2018-05-31T00:59:49.903Z,6.69
2018-05-31T01:00:02.441Z,6.69
2018-05-31T01:00:15.034Z,6.69
2018-05-31T01:00:27.558Z,6.69
2018-05-31T01:00:42.119Z,6.69
2018-05-31T01:00:54.671Z,6.69
2018-05-31T01:01:07.245Z,6.69
2018-05-31T01:01:19.810Z,6.69
2018-05-31T01:01:32.387Z,6.69
2018-05-31T01:01:46.355Z,6.69
2018-05-31T01:01:58.955Z,6.69
2018-05-31T01:02:11.507Z,6.69
2018-05-31T01:02:24.041Z,6.69
2018-05-31T01:02:36.595Z,6.69
2018-05-31T01:02:50.951Z,6.69
2018-05-31T01:03:03.601Z,6.69
2018-05-31T01:03:16.138Z,6.69
2018-05-31T01:03:28.647Z,6.69
2018-05-31T01:03:41.181Z,6.69
2018-05-31T01:03:54.793Z,6.69
2018-05-31T01:04:08.112Z,6.69
2018-05-31T01:04:20.662Z,6.69
2018-05-31T01:04:33.240Z,6.69
2018-05-31T01:04:45.780Z,6.69
2018-05-31T01:04:58.369Z,6.69
2018-05-31T01:05:12.936Z,6.69
2018-05-31T01:05:25.450Z,6.69
2018-05-31T01:05:38.040Z,6.69
2018-05-31T01:05:50.626Z,6.69
2018-05-31T01:06:03.170Z,6.69
2018-05-31T01:06:17.793Z,6.69
2018-05-31T01:06:30.315Z,6.69
2018-05-31T01:06:42.840Z,6.69
2018-05-31T01:06:55.422Z,6.69
2018-05-31T01:07:07.938Z,6.69
2018-05-31T01:07:22.107Z,6.69
2018-05-31T01:07:34.648Z,6.69
2018-05-31T01:07:47.540Z,6.69
2018-05-31T01:08:00.072Z,6.69
2018-05-31T01:08:12.601Z,6.69
2018-05-31T01:08:27.199Z,5.65
2018-05-31T01:08:39.746Z,5.65
2018-05-31T01:08:52.239Z,5.65
2018-05-31T01:09:04.785Z,5.65
2018-05-31T01:09:17.370Z,5.65
2018-05-31T01:09:30.878Z,5.65
2018-05-31T01:09:44.299Z,5.65
2018-05-31T01:09:56.868Z,5.65
2018-05-31T01:10:09.420Z,5.65
2018-05-31T01:10:21.912Z,5.65
2018-05-31T01:10:34.449Z,5.65
2018-05-31T01:10:48.989Z,5.65
2018-05-31T01:11:01.525Z,5.65
2018-05-31T01:11:14.103Z,5.65
2018-05-31T01:11:26.619Z,5.65
2018-05-31T01:11:39.186Z,5.65
2018-05-31T01:11:53.452Z,5.65
2018-05-31T01:12:06.474Z,5.65
2018-05-31T01:12:19.048Z,5.65
2018-05-31T01:12:31.593Z,5.65
2018-05-31T01:12:44.121Z,5.65
2018-05-31T01:12:58.629Z,5.65
2018-05-31T01:13:11.154Z,5.65
2018-05-31T01:13:23.707Z,5.65
2018-05-31T01:13:36.316Z,5.65
2018-05-31T01:13:48.840Z,5.65
2018-05-31T01:14:03.209Z,5.65
2018-05-31T01:14:15.736Z,5.65
2018-05-31T01:14:28.252Z,5.65
2018-05-31T01:14:40.793Z,5.65
2018-05-31T01:14:53.309Z,5.65
2018-05-31T01:15:06.965Z,5.65
2018-05-31T01:15:20.443Z,5.65
2018-05-31T01:15:32.960Z,5.65
2018-05-31T01:15:45.492Z,5.65
2018-05-31T01:15:58.025Z,5.65
2018-05-31T01:16:10.588Z,5.65
2018-05-31T01:16:25.174Z,5.65
2018-05-31T01:16:37.757Z,5.65
2018-05-31T01:16:50.365Z,5.65
2018-05-31T01:17:02.932Z,5.65
2018-05-31T01:17:15.484Z,5.65
2018-05-31T01:17:29.611Z,5.65
2018-05-31T01:17:42.147Z,5.65
2018-05-31T01:17:54.681Z,5.65
2018-05-31T01:18:07.236Z,5.65
2018-05-31T01:18:19.945Z,6.2
2018-05-31T01:18:34.265Z,6.2
2018-05-31T01:18:46.806Z,6.2
2018-05-31T01:18:59.320Z,6.2
2018-05-31T01:19:11.867Z,6.2
2018-05-31T01:19:24.408Z,6.2
2018-05-31T01:19:38.614Z,6.2
2018-05-31T01:19:51.407Z,6.2
2018-05-31T01:20:03.993Z,6.2
2018-05-31T01:20:16.550Z,6.2
2018-05-31T01:20:29.067Z,6.2
2018-05-31T01:20:42.417Z,6.2
2018-05-31T01:20:56.576Z,6.2
2018-05-31T01:21:09.134Z,6.2
2018-05-31T01:21:21.623Z,6.2
2018-05-31T01:21:34.134Z,6.2
2018-05-31T01:21:46.657Z,6.2
2018-05-31T01:22:01.263Z,6.2
2018-05-31T01:22:13.847Z,6.2
2018-05-31T01:22:26.413Z,6.2
2018-05-31T01:22:38.960Z,6.2
2018-05-31T01:22:51.482Z,6.2
2018-05-31T01:23:06.135Z,6.2
2018-05-31T01:23:18.680Z,6.2
2018-05-31T01:23:31.233Z,6.2
2018-05-31T01:23:43.776Z,6.2
2018-05-31T01:23:56.327Z,6.2
2018-05-31T01:24:10.579Z,6.2
2018-05-31T01:24:23.110Z,6.2
2018-05-31T01:24:35.618Z,6.2
2018-05-31T01:24:48.139Z,6.2
2018-05-31T01:25:00.669Z,6.2
2018-05-31T01:25:14.757Z,6.2
2018-05-31T01:25:27.767Z,6.2
2018-05-31T01:25:40.420Z,6.2
2018-05-31T01:25:52.955Z,6.2
2018-05-31T01:26:05.505Z,6.2
2018-05-31T01:26:18.062Z,6.2
2018-05-31T01:26:32.239Z,6.2
2018-05-31T01:26:44.825Z,6.2
2018-05-31T01:26:57.341Z,6.2
2018-05-31T01:27:09.860Z,6.2
2018-05-31T01:27:22.418Z,6.2
2018-05-31T01:27:37.276Z,6.2
2018-05-31T01:27:49.812Z,6.2
2018-05-31T01:28:02.334Z,6.2
2018-05-31T01:28:14.893Z,6.2
2018-05-31T01:28:27.428Z,6.38
2018-05-31T01:28:41.681Z,6.38
2018-05-31T01:28:54.274Z,6.38
2018-05-31T01:29:06.818Z,6.38
2018-05-31T01:29:19.357Z,6.38
2018-05-31T01:29:31.903Z,6.38
2018-05-31T01:29:46.160Z,6.38
2018-05-31T01:29:58.676Z,6.38
2018-05-31T01:30:11.231Z,6.38
2018-05-31T01:30:23.778Z,6.38
2018-05-31T01:30:36.329Z,6.38
2018-05-31T01:30:49.535Z,6.38
2018-05-31T01:31:03.248Z,6.38
2018-05-31T01:31:15.833Z,6.38
2018-05-31T01:31:28.522Z,6.38
2018-05-31T01:31:41.066Z,6.38
2018-05-31T01:31:53.655Z,6.38
2018-05-31T01:32:08.605Z,6.38
2018-05-31T01:32:21.211Z,6.38
2018-05-31T01:32:33.713Z,6.38
2018-05-31T01:32:46.262Z,6.38
2018-05-31T01:32:58.796Z,6.38
2018-05-31T01:33:13.446Z,6.38
2018-05-31T01:33:25.988Z,6.38
2018-05-31T01:33:38.531Z,6.38
2018-05-31T01:33:51.048Z,6.38
2018-05-31T01:34:03.614Z,6.38
2018-05-31T01:34:17.774Z,6.38
2018-05-31T01:34:30.283Z,6.38
2018-05-31T01:34:42.789Z,6.38
2018-05-31T01:34:55.344Z,6.38
2018-05-31T01:35:08.015Z,6.38
2018-05-31T01:35:22.030Z,6.38
2018-05-31T01:35:35.010Z,6.38
2018-05-31T01:35:47.551Z,6.38
2018-05-31T01:36:00.094Z,6.38
2018-05-31T01:36:12.647Z,6.38
2018-05-31T01:36:25.181Z,6.38
2018-05-31T01:36:39.102Z,6.38
2018-05-31T01:36:51.641Z,6.38
2018-05-31T01:37:04.173Z,6.38
2018-05-31T01:37:16.716Z,6.38
2018-05-31T01:37:29.263Z,6.38
2018-05-31T01:37:43.976Z,6.38
2018-05-31T01:37:56.501Z,6.38
2018-05-31T01:38:09.038Z,6.38
2018-05-31T01:38:21.549Z,6.38
2018-05-31T01:38:34.081Z,6.38
2018-05-31T01:38:48.241Z,6.55
2018-05-31T01:39:00.770Z,6.55
2018-05-31T01:39:13.276Z,6.55
2018-05-31T01:39:25.799Z,6.55
2018-05-31T01:39:38.343Z,6.55
2018-05-31T01:39:52.726Z,6.55
2018-05-31T01:40:05.328Z,6.55
2018-05-31T01:40:17.897Z,6.55
2018-05-31T01:40:30.466Z,6.55
2018-05-31T01:40:43.010Z,6.55
2018-05-31T01:40:56.172Z,6.55
2018-05-31T01:41:09.848Z,6.55
2018-05-31T01:41:22.372Z,6.55
2018-05-31T01:41:34.972Z,6.55
2018-05-31T01:41:47.508Z,6.55
2018-05-31T01:42:00.034Z,6.55
2018-05-31T01:42:14.585Z,6.55
2018-05-31T01:42:27.100Z,6.55
2018-05-31T01:42:39.611Z,6.55
2018-05-31T01:42:52.151Z,6.55
2018-05-31T01:43:04.729Z,6.55
2018-05-31T01:43:18.954Z,6.55
2018-05-31T01:43:31.513Z,6.55
2018-05-31T01:43:44.083Z,6.55
2018-05-31T01:43:56.620Z,6.55
2018-05-31T01:44:09.177Z,6.55
2018-05-31T01:44:23.079Z,6.55
2018-05-31T01:44:35.649Z,6.55
2018-05-31T01:44:48.193Z,6.55
2018-05-31T01:45:00.697Z,6.55
2018-05-31T01:45:13.226Z,6.55
2018-05-31T01:45:26.833Z,6.55
2018-05-31T01:45:40.348Z,6.55
2018-05-31T01:45:52.900Z,6.55
2018-05-31T01:46:05.563Z,6.55
2018-05-31T01:46:18.123Z,6.55
2018-05-31T01:46:30.635Z,6.55
2018-05-31T01:46:44.680Z,6.55
2018-05-31T01:46:57.229Z,6.55
2018-05-31T01:47:09.793Z,6.55
2018-05-31T01:47:22.349Z,6.55
2018-05-31T01:47:34.852Z,6.55
2018-05-31T01:47:49.304Z,6.55
2018-05-31T01:48:01.825Z,6.55
2018-05-31T01:48:14.361Z,6.55
2018-05-31T01:48:27.058Z,6.55
2018-05-31T01:48:39.594Z,7.2
2018-05-31T01:48:53.691Z,7.2
2018-05-31T01:49:06.230Z,7.2
2018-05-31T01:49:18.763Z,7.2
2018-05-31T01:49:31.304Z,7.2
2018-05-31T01:49:43.810Z,7.2
2018-05-31T01:49:57.751Z,7.2
2018-05-31T01:50:10.729Z,7.2
2018-05-31T01:50:23.241Z,7.2
2018-05-31T01:50:35.788Z,7.2
2018-05-31T01:50:48.343Z,7.2
2018-05-31T01:51:00.920Z,7.2
2018-05-31T01:51:14.917Z,7.2
2018-05-31T01:51:27.464Z,7.2
2018-05-31T01:51:39.994Z,7.2
2018-05-31T01:51:52.537Z,7.2
2018-05-31T01:52:05.046Z,7.2
2018-05-31T01:52:19.739Z,7.2
2018-05-31T01:52:32.461Z,7.2
2018-05-31T01:52:45.003Z,7.2
2018-05-31T01:52:57.559Z,7.2
2018-05-31T01:53:10.055Z,7.2
2018-05-31T01:53:24.605Z,7.2
2018-05-31T01:53:37.140Z,7.2
2018-05-31T01:53:49.645Z,7.2
2018-05-31T01:54:02.186Z,7.2
2018-05-31T01:54:14.707Z,7.2
2018-05-31T01:54:29.131Z,7.2
2018-05-31T01:54:41.724Z,7.2
2018-05-31T01:54:54.315Z,7.2
2018-05-31T01:55:06.869Z,7.2
2018-05-31T01:55:19.394Z,7.2
2018-05-31T01:55:33.061Z,7.2
2018-05-31T01:55:46.510Z,7.2
2018-05-31T01:55:59.092Z,7.2
2018-05-31T01:56:11.601Z,7.2
2018-05-31T01:56:24.102Z,7.2
2018-05-31T01:56:36.657Z,7.2
2018-05-31T01:56:50.948Z,7.2
2018-05-31T01:57:03.511Z,7.2
2018-05-31T01:57:16.027Z,7.2
2018-05-31T01:57:28.583Z,7.2
2018-05-31T01:57:41.131Z,7.2
2018-05-31T01:57:55.650Z,7.2
2018-05-31T01:58:08.308Z,7.2
2018-05-31T01:58:20.898Z,7.2
2018-05-31T01:58:33.442Z,7.2
2018-05-31T01:58:45.987Z,6.76
2018-05-31T01:59:00.153Z,6.76
2018-05-31T01:59:12.668Z,6.76
2018-05-31T01:59:25.191Z,6.76
2018-05-31T01:59:37.715Z,6.76
2018-05-31T01:59:50.234Z,6.76
2018-05-31T02:00:04.763Z,6.76
2018-05-31T02:00:17.541Z,6.76
2018-05-31T02:00:30.109Z,6.76
2018-05-31T02:00:42.677Z,6.76
2018-05-31T02:00:55.239Z,6.76
2018-05-31T02:01:08.436Z,6.76
2018-05-31T02:01:21.998Z,6.76
2018-05-31T02:01:34.571Z,6.76
2018-05-31T02:01:47.114Z,6.76
2018-05-31T02:01:59.689Z,6.76
2018-05-31T02:02:12.225Z,6.76
2018-05-31T02:02:26.611Z,6.76
2018-05-31T02:02:39.153Z,6.76
2018-05-31T02:02:51.713Z,6.76
2018-05-31T02:03:04.268Z,6.76
2018-05-31T02:03:16.777Z,6.76
2018-05-31T02:03:30.859Z,6.76
2018-05-31T02:03:43.391Z,6.76
2018-05-31T02:03:55.924Z,6.76
2018-05-31T02:04:08.474Z,6.76
2018-05-31T02:04:21.035Z,6.76
2018-05-31T02:04:35.653Z,6.76
2018-05-31T02:04:48.208Z,6.76
2018-05-31T02:05:00.757Z,6.76
2018-05-31T02:05:13.433Z,6.76
2018-05-31T02:05:25.968Z,6.76
2018-05-31T02:05:39.749Z,6.76
2018-05-31T02:05:52.969Z,6.76
2018-05-31T02:06:05.582Z,6.76
2018-05-31T02:06:18.146Z,6.76
2018-05-31T02:06:30.673Z,6.76
2018-05-31T02:06:43.192Z,6.76
2018-05-31T02:06:57.644Z,6.76
2018-05-31T02:07:10.214Z,6.76
2018-05-31T02:07:22.778Z,6.76
2018-05-31T02:07:35.307Z,6.76
2018-05-31T02:07:48.243Z,6.76
2018-05-31T02:08:03.047Z,6.76
2018-05-31T02:08:15.634Z,6.76
2018-05-31T02:08:28.202Z,6.76
2018-05-31T02:08:40.769Z,6.35
2018-05-31T02:08:53.305Z,6.35
2018-05-31T02:09:07.909Z,6.35
2018-05-31T02:09:20.471Z,6.35
2018-05-31T02:09:32.992Z,6.35
2018-05-31T02:09:45.546Z,6.35
2018-05-31T02:09:58.048Z,6.35
2018-05-31T02:10:12.500Z,6.35
2018-05-31T02:10:25.057Z,6.35
2018-05-31T02:10:37.741Z,6.35
2018-05-31T02:10:50.315Z,6.35
2018-05-31T02:11:02.864Z,6.35
2018-05-31T02:11:16.195Z,6.35
2018-05-31T02:11:29.552Z,6.35
2018-05-31T02:11:42.090Z,6.35
2018-05-31T02:11:54.606Z,6.35
2018-05-31T02:12:07.146Z,6.35
2018-05-31T02:12:19.663Z,6.35
2018-05-31T02:12:34.386Z,6.35
2018-05-31T02:12:46.958Z,6.35
2018-05-31T02:12:59.486Z,6.35
2018-05-31T02:13:12.024Z,6.35
2018-05-31T02:13:24.562Z,6.35
2018-05-31T02:13:38.656Z,6.35
2018-05-31T02:13:51.197Z,6.35
2018-05-31T02:14:03.783Z,6.35
2018-05-31T02:14:16.333Z,6.35
2018-05-31T02:14:28.871Z,6.35
2018-05-31T02:14:43.526Z,6.35
2018-05-31T02:14:56.122Z,6.35
2018-05-31T02:15:08.730Z,6.35
2018-05-31T02:15:21.264Z,6.35
2018-05-31T02:15:33.915Z,6.35
2018-05-31T02:15:47.981Z,6.35
2018-05-31T02:16:00.654Z,6.35
2018-05-31T02:16:13.188Z,6.35
2018-05-31T02:16:25.715Z,6.35
2018-05-31T02:16:38.292Z,6.35
2018-05-31T02:16:51.281Z,6.35
2018-05-31T02:17:05.253Z,6.35
2018-05-31T02:17:17.784Z,6.35
2018-05-31T02:17:30.320Z,6.35
2018-05-31T02:17:42.873Z,6.35
2018-05-31T02:17:55.413Z,6.35
2018-05-31T02:18:09.950Z,6.35
2018-05-31T02:18:22.489Z,6.35
2018-05-31T02:18:35.033Z,6.35
2018-05-31T02:18:47.572Z,7.02
2018-05-31T02:19:00.126Z,7.02
2018-05-31T02:19:14.647Z,7.02
2018-05-31T02:19:27.269Z,7.02
2018-05-31T02:19:39.774Z,7.02
2018-05-31T02:19:52.323Z,7.02
2018-05-31T02:20:04.890Z,7.02
2018-05-31T02:20:19.426Z,7.02
2018-05-31T02:20:31.969Z,7.02
2018-05-31T02:20:44.555Z,7.02
2018-05-31T02:20:57.091Z,7.02
2018-05-31T02:21:09.651Z,7.02
2018-05-31T02:21:23.524Z,7.02
2018-05-31T02:21:36.540Z,7.02
2018-05-31T02:21:49.041Z,7.02
2018-05-31T02:22:01.621Z,7.02
2018-05-31T02:22:14.151Z,7.02
2018-05-31T02:22:26.743Z,7.02
2018-05-31T02:22:41.246Z,7.02
2018-05-31T02:22:53.821Z,7.02
2018-05-31T02:23:06.366Z,7.02
2018-05-31T02:23:18.885Z,7.02
2018-05-31T02:23:31.418Z,7.02
2018-05-31T02:23:45.966Z,7.02
2018-05-31T02:23:58.512Z,7.02
2018-05-31T02:24:11.030Z,7.02
2018-05-31T02:24:23.591Z,7.02
2018-05-31T02:24:36.151Z,7.02
2018-05-31T02:24:50.620Z,7.02
2018-05-31T02:25:03.142Z,7.02
2018-05-31T02:25:15.654Z,7.02
2018-05-31T02:25:28.183Z,7.02
2018-05-31T02:25:40.762Z,7.02
2018-05-31T02:25:55.074Z,7.02
2018-05-31T02:26:07.641Z,7.02
2018-05-31T02:26:20.290Z,7.02
2018-05-31T02:26:32.842Z,7.02
2018-05-31T02:26:45.376Z,7.02
2018-05-31T02:26:58.752Z,7.02
2018-05-31T02:27:12.451Z,7.02
2018-05-31T02:27:24.975Z,7.02
2018-05-31T02:27:37.528Z,7.02
2018-05-31T02:27:50.049Z,7.02
2018-05-31T02:28:02.624Z,7.02
2018-05-31T02:28:17.134Z,7.02
2018-05-31T02:28:29.730Z,7.02
2018-05-31T02:28:42.277Z,6.7
2018-05-31T02:28:54.772Z,6.7
2018-05-31T02:29:07.344Z,6.7
2018-05-31T02:29:21.733Z,6.7
2018-05-31T02:29:34.295Z,6.7
2018-05-31T02:29:46.842Z,6.7
2018-05-31T02:29:59.363Z,6.7
2018-05-31T02:30:11.966Z,6.7
2018-05-31T02:30:26.541Z,6.7
2018-05-31T02:30:39.177Z,6.7
2018-05-31T02:30:51.846Z,6.7
2018-05-31T02:31:04.517Z,6.7
2018-05-31T02:31:17.271Z,6.7
2018-05-31T02:31:31.494Z,6.7
2018-05-31T02:31:44.572Z,6.7
2018-05-31T02:31:57.082Z,6.7
2018-05-31T02:32:09.594Z,6.7
2018-05-31T02:32:22.098Z,6.7
2018-05-31T02:32:34.620Z,6.7
2018-05-31T02:32:49.146Z,6.7
2018-05-31T02:33:01.670Z,6.7
2018-05-31T02:33:14.226Z,6.7
2018-05-31T02:33:26.731Z,6.7
2018-05-31T02:33:39.260Z,6.7
2018-05-31T02:33:53.563Z,6.7
2018-05-31T02:34:06.112Z,6.7
2018-05-31T02:34:18.629Z,6.7
2018-05-31T02:34:31.170Z,6.7
2018-05-31T02:34:43.721Z,6.7
2018-05-31T02:34:58.120Z,6.7
2018-05-31T02:35:10.741Z,6.7
2018-05-31T02:35:23.262Z,6.7
2018-05-31T02:35:35.810Z,6.7
2018-05-31T02:35:48.329Z,6.7
2018-05-31T02:36:02.392Z,6.7
2018-05-31T02:36:15.096Z,6.7
2018-05-31T02:36:27.666Z,6.7
2018-05-31T02:36:40.200Z,6.7
2018-05-31T02:36:52.751Z,6.7
2018-05-31T02:37:05.893Z,6.7
2018-05-31T02:37:20.000Z,6.7
2018-05-31T02:37:32.703Z,6.7
2018-05-31T02:37:45.258Z,6.7
2018-05-31T02:37:57.790Z,6.7
2018-05-31T02:38:10.341Z,6.7
2018-05-31T02:38:24.379Z,6.7
2018-05-31T02:38:36.931Z,6.7
2018-05-31T02:38:49.474Z,6.18
2018-05-31T02:39:02.029Z,6.18
2018-05-31T02:39:14.555Z,6.18
2018-05-31T02:39:28.645Z,6.18
2018-05-31T02:39:41.258Z,6.18
2018-05-31T02:39:53.850Z,6.18
2018-05-31T02:40:06.367Z,6.18
2018-05-31T02:40:18.884Z,6.18
2018-05-31T02:40:33.434Z,6.18
2018-05-31T02:40:46.011Z,6.18
2018-05-31T02:40:58.593Z,6.18
2018-05-31T02:41:11.410Z,6.18
2018-05-31T02:41:23.955Z,6.18
2018-05-31T02:41:38.151Z,6.18
2018-05-31T02:41:51.086Z,6.18
2018-05-31T02:42:03.618Z,6.18
2018-05-31T02:42:16.121Z,6.18
2018-05-31T02:42:28.664Z,6.18
2018-05-31T02:42:41.241Z,6.18
2018-05-31T02:42:55.465Z,6.18
2018-05-31T02:43:08.002Z,6.18
2018-05-31T02:43:20.541Z,6.18
2018-05-31T02:43:33.082Z,6.18
2018-05-31T02:43:45.648Z,6.18
2018-05-31T02:44:00.068Z,6.18
2018-05-31T02:44:12.574Z,6.18
2018-05-31T02:44:25.084Z,6.18
2018-05-31T02:44:37.625Z,6.18
2018-05-31T02:44:50.148Z,6.18
2018-05-31T02:45:04.502Z,6.18
2018-05-31T02:45:17.045Z,6.18
2018-05-31T02:45:29.604Z,6.18
2018-05-31T02:45:42.150Z,6.18
2018-05-31T02:45:54.653Z,6.18
2018-05-31T02:46:09.070Z,6.18
2018-05-31T02:46:21.606Z,6.18
2018-05-31T02:46:34.168Z,6.18
2018-05-31T02:46:46.710Z,6.18
2018-05-31T02:46:59.217Z,6.18
2018-05-31T02:47:12.302Z,6.18
2018-05-31T02:47:26.237Z,6.18
2018-05-31T02:47:38.776Z,6.18
2018-05-31T02:47:51.303Z,6.18
2018-05-31T02:48:03.826Z,6.18
2018-05-31T02:48:16.360Z,6.18
2018-05-31T02:48:30.648Z,6.18
2018-05-31T02:48:43.268Z,7.05
2018-05-31T02:48:55.846Z,7.05
2018-05-31T02:49:08.513Z,7.05
2018-05-31T02:49:21.017Z,7.05
2018-05-31T02:49:35.831Z,7.05
2018-05-31T02:49:48.367Z,7.05
2018-05-31T02:50:00.897Z,7.05
2018-05-31T02:50:13.441Z,7.05
2018-05-31T02:50:26.016Z,7.05
2018-05-31T02:50:40.296Z,7.05
2018-05-31T02:50:52.845Z,7.05
2018-05-31T02:51:05.355Z,7.05
2018-05-31T02:51:17.945Z,7.05
2018-05-31T02:51:30.462Z,7.05
2018-05-31T02:51:44.667Z,7.05
2018-05-31T02:51:57.619Z,7.05
2018-05-31T02:52:10.154Z,7.05
2018-05-31T02:52:22.687Z,7.05
2018-05-31T02:52:35.362Z,7.05
2018-05-31T02:52:47.888Z,7.05
2018-05-31T02:53:02.054Z,7.05
2018-05-31T02:53:14.608Z,7.05